sensor_id;sensor_type;location;lat;lon;timestamp;temperature;humidity
16392;DHT22;8305;-33.882;151.134;2023-07-28T02:01:59;21.40;99.90
16392;DHT22;8305;-33.882;151.134;2023-07-28T02:04:30;21.50;99.90
16392;DHT22;8305;-33.882;151.134;2023-07-28T02:07:01;21.50;99.90
16392;DHT22;8305;-33.882;151.134;2023-07-28T02:09:32;21.50;99.90
16392;DHT22;8305;-33.882;151.134;2023-07-28T02:12:03;21.70;99.90
16392;DHT22;8305;-33.882;151.134;2023-07-28T02:14:33;21.70;99.90
16392;DHT22;8305;-33.882;151.134;2023-07-28T02:17:06;21.80;99.90
16392;DHT22;8305;-33.882;151.134;2023-07-28T02:19:37;21.90;99.90
16392;DHT22;8305;-33.882;151.134;2023-07-28T02:22:08;21.90;99.90
16392;DHT22;8305;-33.882;151.134;2023-07-28T02:24:39;21.90;99.90
16392;DHT22;8305;-33.882;151.134;2023-07-28T02:27:10;21.90;99.90
16392;DHT22;8305;-33.882;151.134;2023-07-28T02:29:40;22.00;99.90
16392;DHT22;8305;-33.882;151.134;2023-07-28T02:32:13;22.10;99.90
16392;DHT22;8305;-33.882;151.134;2023-07-28T02:34:44;22.10;99.90
16392;DHT22;8305;-33.882;151.134;2023-07-28T02:37:15;22.10;99.90
16392;DHT22;8305;-33.882;151.134;2023-07-28T02:39:46;22.10;99.90
16392;DHT22;8305;-33.882;151.134;2023-07-28T02:42:17;22.20;99.90
16392;DHT22;8305;-33.882;151.134;2023-07-28T02:44:48;22.20;99.90
16392;DHT22;8305;-33.882;151.134;2023-07-28T02:47:20;22.20;99.90
16392;DHT22;8305;-33.882;151.134;2023-07-28T02:49:51;22.20;99.90
16392;DHT22;8305;-33.882;151.134;2023-07-28T02:52:22;22.20;99.90
16392;DHT22;8305;-33.882;151.134;2023-07-28T02:54:53;22.30;99.90
16392;DHT22;8305;-33.882;151.134;2023-07-28T02:57:24;22.30;99.90
16392;DHT22;8305;-33.882;151.134;2023-07-28T02:59:55;22.40;99.90
16392;DHT22;8305;-33.882;151.134;2023-07-28T03:02:28;22.50;99.90
16392;DHT22;8305;-33.882;151.134;2023-07-28T03:04:59;22.60;99.90
16392;DHT22;8305;-33.882;151.134;2023-07-28T03:07:30;22.70;99.90
16392;DHT22;8305;-33.882;151.134;2023-07-28T03:10:01;22.80;99.90
16392;DHT22;8305;-33.882;151.134;2023-07-28T03:12:31;22.80;99.90
16392;DHT22;8305;-33.882;151.134;2023-07-28T03:15:02;22.80;99.90
16392;DHT22;8305;-33.882;151.134;2023-07-28T03:17:35;22.80;99.90
16392;DHT22;8305;-33.882;151.134;2023-07-28T03:20:06;22.80;99.90
16392;DHT22;8305;-33.882;151.134;2023-07-28T03:22:37;22.90;99.90
16392;DHT22;8305;-33.882;151.134;2023-07-28T03:25:08;23.10;99.90
16392;DHT22;8305;-33.882;151.134;2023-07-28T03:27:39;23.30;99.90
16392;DHT22;8305;-33.882;151.134;2023-07-28T03:30:10;23.50;99.90
16392;DHT22;8305;-33.882;151.134;2023-07-28T03:32:43;23.50;99.90
16392;DHT22;8305;-33.882;151.134;2023-07-28T03:35:14;23.40;99.90
16392;DHT22;8305;-33.882;151.134;2023-07-28T03:37:48;23.20;99.90
16392;DHT22;8305;-33.882;151.134;2023-07-28T03:40:19;23.10;99.90
16392;DHT22;8305;-33.882;151.134;2023-07-28T03:42:50;23.00;99.90
16392;DHT22;8305;-33.882;151.134;2023-07-28T03:45:21;23.00;99.90
16392;DHT22;8305;-33.882;151.134;2023-07-28T03:47:53;23.10;99.90
16392;DHT22;8305;-33.882;151.134;2023-07-28T03:50:24;23.00;99.90
16392;DHT22;8305;-33.882;151.134;2023-07-28T03:52:56;23.00;99.90
16392;DHT22;8305;-33.882;151.134;2023-07-28T03:55:27;23.00;99.90
16392;DHT22;8305;-33.882;151.134;2023-07-28T03:57:58;23.10;99.90
16392;DHT22;8305;-33.882;151.134;2023-07-28T04:00:28;23.40;99.90
16392;DHT22;8305;-33.882;151.134;2023-07-28T04:03:01;23.60;99.90
16392;DHT22;8305;-33.882;151.134;2023-07-28T04:05:37;23.70;99.90
16392;DHT22;8305;-33.882;151.134;2023-07-28T04:08:08;23.60;99.90
16392;DHT22;8305;-33.882;151.134;2023-07-28T04:10:38;23.50;99.90
16392;DHT22;8305;-33.882;151.134;2023-07-28T04:13:10;23.50;99.90
16392;DHT22;8305;-33.882;151.134;2023-07-28T04:15:41;23.60;99.90
16392;DHT22;8305;-33.882;151.134;2023-07-28T04:18:13;23.60;99.90
16392;DHT22;8305;-33.882;151.134;2023-07-28T04:20:45;23.50;99.90
16392;DHT22;8305;-33.882;151.134;2023-07-28T04:23:16;23.30;99.90
16392;DHT22;8305;-33.882;151.134;2023-07-28T04:25:47;23.20;99.90
16392;DHT22;8305;-33.882;151.134;2023-07-28T04:28:18;23.20;99.90
16392;DHT22;8305;-33.882;151.134;2023-07-28T04:30:52;23.30;99.90
16392;DHT22;8305;-33.882;151.134;2023-07-28T04:33:24;23.50;99.90
16392;DHT22;8305;-33.882;151.134;2023-07-28T04:35:55;23.70;99.90
16392;DHT22;8305;-33.882;151.134;2023-07-28T04:38:26;23.90;99.90
16392;DHT22;8305;-33.882;151.134;2023-07-28T04:40:57;24.00;99.90
16392;DHT22;8305;-33.882;151.134;2023-07-28T04:43:28;24.00;99.90
16392;DHT22;8305;-33.882;151.134;2023-07-28T04:45:59;24.10;99.90
16392;DHT22;8305;-33.882;151.134;2023-07-28T04:48:31;24.00;99.90
16392;DHT22;8305;-33.882;151.134;2023-07-28T04:51:02;23.90;99.90
16392;DHT22;8305;-33.882;151.134;2023-07-28T04:53:33;23.70;99.90
16392;DHT22;8305;-33.882;151.134;2023-07-28T04:56:04;23.50;99.90
16392;DHT22;8305;-33.882;151.134;2023-07-28T04:58:35;23.40;99.90
16392;DHT22;8305;-33.882;151.134;2023-07-28T05:01:06;23.40;99.90
16392;DHT22;8305;-33.882;151.134;2023-07-28T05:03:39;23.40;99.90
16392;DHT22;8305;-33.882;151.134;2023-07-28T05:06:10;23.50;99.90
16392;DHT22;8305;-33.882;151.134;2023-07-28T05:08:40;23.50;99.90
16392;DHT22;8305;-33.882;151.134;2023-07-28T05:11:11;23.40;99.90
16392;DHT22;8305;-33.882;151.134;2023-07-28T05:13:42;23.30;99.90
16392;DHT22;8305;-33.882;151.134;2023-07-28T05:16:13;23.30;99.90
16392;DHT22;8305;-33.882;151.134;2023-07-28T05:18:45;23.30;99.90
16392;DHT22;8305;-33.882;151.134;2023-07-28T05:21:16;23.40;99.90
16392;DHT22;8305;-33.882;151.134;2023-07-28T05:23:47;23.20;99.90
16392;DHT22;8305;-33.882;151.134;2023-07-28T05:26:18;23.10;99.90
16392;DHT22;8305;-33.882;151.134;2023-07-28T05:28:49;22.90;99.90
16392;DHT22;8305;-33.882;151.134;2023-07-28T05:31:20;22.90;99.90
16392;DHT22;8305;-33.882;151.134;2023-07-28T05:33:52;22.80;99.90
16392;DHT22;8305;-33.882;151.134;2023-07-28T05:36:23;22.70;99.90
16392;DHT22;8305;-33.882;151.134;2023-07-28T05:38:54;22.60;99.90
16392;DHT22;8305;-33.882;151.134;2023-07-28T05:41:25;22.60;99.90
16392;DHT22;8305;-33.882;151.134;2023-07-28T05:43:55;22.60;99.90
16392;DHT22;8305;-33.882;151.134;2023-07-28T05:46:26;22.50;99.90
16392;DHT22;8305;-33.882;151.134;2023-07-28T05:48:59;22.50;99.90
16392;DHT22;8305;-33.882;151.134;2023-07-28T05:51:30;22.50;99.90
16392;DHT22;8305;-33.882;151.134;2023-07-28T05:54:01;22.30;99.90
16392;DHT22;8305;-33.882;151.134;2023-07-28T05:56:31;22.20;99.90
16392;DHT22;8305;-33.882;151.134;2023-07-28T05:59:02;22.20;99.90
16392;DHT22;8305;-33.882;151.134;2023-07-28T06:01:33;22.10;99.90
16392;DHT22;8305;-33.882;151.134;2023-07-28T06:04:06;22.00;99.90
16392;DHT22;8305;-33.882;151.134;2023-07-28T06:06:37;21.90;99.90
16392;DHT22;8305;-33.882;151.134;2023-07-28T06:09:07;21.90;99.90
16392;DHT22;8305;-33.882;151.134;2023-07-28T06:11:38;21.90;99.90
16392;DHT22;8305;-33.882;151.134;2023-07-28T06:14:09;21.70;99.90
16392;DHT22;8305;-33.882;151.134;2023-07-28T06:16:40;21.60;99.90
16392;DHT22;8305;-33.882;151.134;2023-07-28T06:19:12;21.60;99.90
16392;DHT22;8305;-33.882;151.134;2023-07-28T06:21:44;21.50;99.90
16392;DHT22;8305;-33.882;151.134;2023-07-28T06:24:15;21.50;99.90
16392;DHT22;8305;-33.882;151.134;2023-07-28T06:26:46;21.40;99.90
16392;DHT22;8305;-33.882;151.134;2023-07-28T06:29:18;21.40;99.90
16392;DHT22;8305;-33.882;151.134;2023-07-28T06:31:49;21.30;99.90
16392;DHT22;8305;-33.882;151.134;2023-07-28T06:34:21;21.30;99.90
16392;DHT22;8305;-33.882;151.134;2023-07-28T06:36:52;21.20;99.90
16392;DHT22;8305;-33.882;151.134;2023-07-28T06:39:23;21.10;99.90
16392;DHT22;8305;-33.882;151.134;2023-07-28T06:41:54;21.10;99.90
16392;DHT22;8305;-33.882;151.134;2023-07-28T06:44:25;21.00;99.90
16392;DHT22;8305;-33.882;151.134;2023-07-28T06:46:55;21.00;99.90
16392;DHT22;8305;-33.882;151.134;2023-07-28T06:49:28;21.00;99.90
16392;DHT22;8305;-33.882;151.134;2023-07-28T06:51:59;20.90;99.90
16392;DHT22;8305;-33.882;151.134;2023-07-28T06:54:30;20.80;99.90
16392;DHT22;8305;-33.882;151.134;2023-07-28T06:57:00;20.70;99.90
16392;DHT22;8305;-33.882;151.134;2023-07-28T06:59:32;20.70;99.90
16392;DHT22;8305;-33.882;151.134;2023-07-28T07:02:03;20.60;99.90
16392;DHT22;8305;-33.882;151.134;2023-07-28T07:04:36;20.60;99.90
16392;DHT22;8305;-33.882;151.134;2023-07-28T07:07:07;20.60;99.90
16392;DHT22;8305;-33.882;151.134;2023-07-28T07:09:38;20.50;99.90
16392;DHT22;8305;-33.882;151.134;2023-07-28T07:12:09;20.40;99.90
16392;DHT22;8305;-33.882;151.134;2023-07-28T07:14:40;20.40;99.90
16392;DHT22;8305;-33.882;151.134;2023-07-28T07:17:11;20.30;99.90
16392;DHT22;8305;-33.882;151.134;2023-07-28T07:19:44;20.30;99.90
16392;DHT22;8305;-33.882;151.134;2023-07-28T07:22:15;20.20;99.90
16392;DHT22;8305;-33.882;151.134;2023-07-28T07:24:45;20.20;99.90
16392;DHT22;8305;-33.882;151.134;2023-07-28T07:27:16;20.10;99.90
16392;DHT22;8305;-33.882;151.134;2023-07-28T07:29:47;20.10;99.90
16392;DHT22;8305;-33.882;151.134;2023-07-28T07:32:18;20.10;99.90
16392;DHT22;8305;-33.882;151.134;2023-07-28T07:34:51;20.00;99.90
16392;DHT22;8305;-33.882;151.134;2023-07-28T07:37:22;20.00;99.90
16392;DHT22;8305;-33.882;151.134;2023-07-28T07:39:53;19.90;99.90
16392;DHT22;8305;-33.882;151.134;2023-07-28T07:42:24;19.90;99.90
16392;DHT22;8305;-33.882;151.134;2023-07-28T07:44:55;19.80;99.90
16392;DHT22;8305;-33.882;151.134;2023-07-28T07:47:26;19.80;99.90
16392;DHT22;8305;-33.882;151.134;2023-07-28T07:49:58;19.70;99.90
16392;DHT22;8305;-33.882;151.134;2023-07-28T07:52:32;19.70;99.90
16392;DHT22;8305;-33.882;151.134;2023-07-28T07:55:03;19.60;99.90
16392;DHT22;8305;-33.882;151.134;2023-07-28T07:57:34;19.60;99.90
16392;DHT22;8305;-33.882;151.134;2023-07-28T08:00:06;19.50;99.90
16392;DHT22;8305;-33.882;151.134;2023-07-28T08:02:37;19.50;99.90
16392;DHT22;8305;-33.882;151.134;2023-07-28T08:05:10;19.40;99.90
16392;DHT22;8305;-33.882;151.134;2023-07-28T08:07:40;19.40;99.90
16392;DHT22;8305;-33.882;151.134;2023-07-28T08:10:12;19.30;99.90
16392;DHT22;8305;-33.882;151.134;2023-07-28T08:12:42;19.20;99.90
16392;DHT22;8305;-33.882;151.134;2023-07-28T08:15:15;19.10;99.90
16392;DHT22;8305;-33.882;151.134;2023-07-28T08:17:46;19.10;99.90
16392;DHT22;8305;-33.882;151.134;2023-07-28T08:20:20;19.00;99.90
16392;DHT22;8305;-33.882;151.134;2023-07-28T08:22:50;18.90;99.90
16392;DHT22;8305;-33.882;151.134;2023-07-28T08:25:21;18.90;99.90
16392;DHT22;8305;-33.882;151.134;2023-07-28T08:27:52;18.70;99.90
16392;DHT22;8305;-33.882;151.134;2023-07-28T08:30:23;18.60;99.90
16392;DHT22;8305;-33.882;151.134;2023-07-28T08:32:54;18.40;99.90
16392;DHT22;8305;-33.882;151.134;2023-07-28T08:35:27;18.30;99.90
16392;DHT22;8305;-33.882;151.134;2023-07-28T08:37:57;18.20;99.90
16392;DHT22;8305;-33.882;151.134;2023-07-28T08:40:28;18.00;99.90
16392;DHT22;8305;-33.882;151.134;2023-07-28T08:42:59;17.90;99.90
16392;DHT22;8305;-33.882;151.134;2023-07-28T08:45:30;17.80;99.90
16392;DHT22;8305;-33.882;151.134;2023-07-28T08:48:01;17.80;99.90
16392;DHT22;8305;-33.882;151.134;2023-07-28T08:50:33;17.70;99.90
16392;DHT22;8305;-33.882;151.134;2023-07-28T08:53:04;17.70;99.90
16392;DHT22;8305;-33.882;151.134;2023-07-28T08:55:35;17.60;99.90
16392;DHT22;8305;-33.882;151.134;2023-07-28T08:58:19;17.60;99.90
16392;DHT22;8305;-33.882;151.134;2023-07-28T09:00:50;17.60;99.90
16392;DHT22;8305;-33.882;151.134;2023-07-28T09:03:21;17.50;99.90
16392;DHT22;8305;-33.882;151.134;2023-07-28T09:06:00;17.50;99.90
16392;DHT22;8305;-33.882;151.134;2023-07-28T09:08:32;17.40;99.90
16392;DHT22;8305;-33.882;151.134;2023-07-28T09:11:03;17.40;99.90
16392;DHT22;8305;-33.882;151.134;2023-07-28T09:13:39;17.30;99.90
16392;DHT22;8305;-33.882;151.134;2023-07-28T09:16:18;17.30;99.90
16392;DHT22;8305;-33.882;151.134;2023-07-28T09:18:49;17.30;99.90
16392;DHT22;8305;-33.882;151.134;2023-07-28T09:21:22;17.30;99.90
16392;DHT22;8305;-33.882;151.134;2023-07-28T09:23:53;17.30;99.90
16392;DHT22;8305;-33.882;151.134;2023-07-28T09:26:24;17.30;99.90
16392;DHT22;8305;-33.882;151.134;2023-07-28T09:28:54;17.30;99.90
16392;DHT22;8305;-33.882;151.134;2023-07-28T09:31:30;17.30;99.90
16392;DHT22;8305;-33.882;151.134;2023-07-28T09:34:01;17.30;99.90
16392;DHT22;8305;-33.882;151.134;2023-07-28T09:36:35;17.30;99.90
16392;DHT22;8305;-33.882;151.134;2023-07-28T09:39:06;17.30;99.90
16392;DHT22;8305;-33.882;151.134;2023-07-28T09:41:38;17.30;99.90
16392;DHT22;8305;-33.882;151.134;2023-07-28T09:44:09;17.30;99.90
16392;DHT22;8305;-33.882;151.134;2023-07-28T09:46:49;17.30;99.90
16392;DHT22;8305;-33.882;151.134;2023-07-28T09:49:25;17.30;99.90
16392;DHT22;8305;-33.882;151.134;2023-07-28T09:52:03;17.30;99.90
16392;DHT22;8305;-33.882;151.134;2023-07-28T09:54:37;17.40;99.90
16392;DHT22;8305;-33.882;151.134;2023-07-28T09:57:12;17.40;99.90
16392;DHT22;8305;-33.882;151.134;2023-07-28T09:59:43;17.40;99.90
16392;DHT22;8305;-33.882;151.134;2023-07-28T10:02:15;17.50;99.90
16392;DHT22;8305;-33.882;151.134;2023-07-28T10:04:47;17.50;99.90
16392;DHT22;8305;-33.882;151.134;2023-07-28T10:07:20;17.40;99.90
16392;DHT22;8305;-33.882;151.134;2023-07-28T10:09:51;17.50;99.90
16392;DHT22;8305;-33.882;151.134;2023-07-28T10:12:25;17.60;99.90
16392;DHT22;8305;-33.882;151.134;2023-07-28T10:15:03;17.60;99.90
16392;DHT22;8305;-33.882;151.134;2023-07-28T10:17:34;17.60;99.90
16392;DHT22;8305;-33.882;151.134;2023-07-28T10:20:05;17.70;99.90
16392;DHT22;8305;-33.882;151.134;2023-07-28T10:22:46;17.60;99.90
16392;DHT22;8305;-33.882;151.134;2023-07-28T10:25:23;17.60;99.90
16392;DHT22;8305;-33.882;151.134;2023-07-28T10:27:55;17.50;99.90
16392;DHT22;8305;-33.882;151.134;2023-07-28T10:30:26;17.50;99.90
16392;DHT22;8305;-33.882;151.134;2023-07-28T10:32:56;17.50;99.90
16392;DHT22;8305;-33.882;151.134;2023-07-28T10:35:28;17.50;99.90
16392;DHT22;8305;-33.882;151.134;2023-07-28T10:38:31;17.40;99.90
16392;DHT22;8305;-33.882;151.134;2023-07-28T10:41:10;17.30;99.90
16392;DHT22;8305;-33.882;151.134;2023-07-28T10:43:42;17.20;99.90
16392;DHT22;8305;-33.882;151.134;2023-07-28T10:46:17;17.20;99.90
16392;DHT22;8305;-33.882;151.134;2023-07-28T10:48:51;17.10;99.90
16392;DHT22;8305;-33.882;151.134;2023-07-28T10:51:23;17.00;99.90
16392;DHT22;8305;-33.882;151.134;2023-07-28T10:53:59;16.90;99.90
16392;DHT22;8305;-33.882;151.134;2023-07-28T10:56:30;16.90;99.90
16392;DHT22;8305;-33.882;151.134;2023-07-28T10:59:02;16.80;99.90
16392;DHT22;8305;-33.882;151.134;2023-07-28T11:01:34;16.80;99.90
16392;DHT22;8305;-33.882;151.134;2023-07-28T11:04:10;16.80;99.90
16392;DHT22;8305;-33.882;151.134;2023-07-28T11:06:42;16.70;99.90
16392;DHT22;8305;-33.882;151.134;2023-07-28T11:09:16;16.70;99.90
16392;DHT22;8305;-33.882;151.134;2023-07-28T11:11:47;16.70;99.90
16392;DHT22;8305;-33.882;151.134;2023-07-28T11:14:19;16.70;99.90
16392;DHT22;8305;-33.882;151.134;2023-07-28T11:16:50;16.80;99.90
16392;DHT22;8305;-33.882;151.134;2023-07-28T11:19:21;16.80;99.90
16392;DHT22;8305;-33.882;151.134;2023-07-28T11:21:54;16.90;99.90
16392;DHT22;8305;-33.882;151.134;2023-07-28T11:24:28;16.90;99.90
16392;DHT22;8305;-33.882;151.134;2023-07-28T11:26:59;17.00;99.90
16392;DHT22;8305;-33.882;151.134;2023-07-28T11:29:30;17.00;99.90
16392;DHT22;8305;-33.882;151.134;2023-07-28T11:32:01;16.90;99.90
16392;DHT22;8305;-33.882;151.134;2023-07-28T11:34:36;16.90;99.90
16392;DHT22;8305;-33.882;151.134;2023-07-28T11:37:09;17.00;99.90
16392;DHT22;8305;-33.882;151.134;2023-07-28T11:39:42;17.00;99.90
16392;DHT22;8305;-33.882;151.134;2023-07-28T11:42:12;17.00;99.90
16392;DHT22;8305;-33.882;151.134;2023-07-28T11:44:44;17.00;99.90
16392;DHT22;8305;-33.882;151.134;2023-07-28T11:47:18;17.10;99.90
16392;DHT22;8305;-33.882;151.134;2023-07-28T11:49:50;17.10;99.90
16392;DHT22;8305;-33.882;151.134;2023-07-28T11:52:21;17.20;99.90
16392;DHT22;8305;-33.882;151.134;2023-07-28T11:54:55;17.20;99.90
16392;DHT22;8305;-33.882;151.134;2023-07-28T11:57:26;17.20;99.90
16392;DHT22;8305;-33.882;151.134;2023-07-28T11:59:58;17.20;99.90
16392;DHT22;8305;-33.882;151.134;2023-07-28T12:02:31;17.20;99.90
16392;DHT22;8305;-33.882;151.134;2023-07-28T12:05:02;17.20;99.90
16392;DHT22;8305;-33.882;151.134;2023-07-28T12:07:46;17.20;99.90
16392;DHT22;8305;-33.882;151.134;2023-07-28T12:10:20;17.20;99.90
16392;DHT22;8305;-33.882;151.134;2023-07-28T12:12:52;17.20;99.90
16392;DHT22;8305;-33.882;151.134;2023-07-28T12:15:24;17.20;99.90
16392;DHT22;8305;-33.882;151.134;2023-07-28T12:18:15;17.20;99.90
16392;DHT22;8305;-33.882;151.134;2023-07-28T12:20:48;17.20;99.90
16392;DHT22;8305;-33.882;151.134;2023-07-28T12:23:20;17.10;99.90
16392;DHT22;8305;-33.882;151.134;2023-07-28T12:25:54;17.10;99.90
16392;DHT22;8305;-33.882;151.134;2023-07-28T12:28:26;17.10;99.90
16392;DHT22;8305;-33.882;151.134;2023-07-28T12:30:58;17.10;99.90
16392;DHT22;8305;-33.882;151.134;2023-07-28T12:33:33;17.10;99.90
16392;DHT22;8305;-33.882;151.134;2023-07-28T12:36:04;17.10;99.90
16392;DHT22;8305;-33.882;151.134;2023-07-28T12:38:35;17.00;99.90
16392;DHT22;8305;-33.882;151.134;2023-07-28T12:41:07;17.00;99.90
16392;DHT22;8305;-33.882;151.134;2023-07-28T12:43:38;17.00;99.90
16392;DHT22;8305;-33.882;151.134;2023-07-28T12:46:09;17.00;99.90
16392;DHT22;8305;-33.882;151.134;2023-07-28T12:48:40;17.00;99.90
16392;DHT22;8305;-33.882;151.134;2023-07-28T12:51:11;17.00;99.90
16392;DHT22;8305;-33.882;151.134;2023-07-28T12:53:42;16.90;99.90
16392;DHT22;8305;-33.882;151.134;2023-07-28T12:56:15;16.90;99.90
16392;DHT22;8305;-33.882;151.134;2023-07-28T12:58:46;16.90;99.90
16392;DHT22;8305;-33.882;151.134;2023-07-28T13:01:16;16.90;99.90
16392;DHT22;8305;-33.882;151.134;2023-07-28T13:03:47;16.80;99.90
16392;DHT22;8305;-33.882;151.134;2023-07-28T13:06:18;16.80;99.90
16392;DHT22;8305;-33.882;151.134;2023-07-28T13:08:49;16.80;99.90
16392;DHT22;8305;-33.882;151.134;2023-07-28T13:11:22;16.70;99.90
16392;DHT22;8305;-33.882;151.134;2023-07-28T13:13:52;16.70;99.90
16392;DHT22;8305;-33.882;151.134;2023-07-28T13:16:23;16.70;99.90
16392;DHT22;8305;-33.882;151.134;2023-07-28T13:18:54;16.70;99.90
16392;DHT22;8305;-33.882;151.134;2023-07-28T13:21:25;16.70;99.90
16392;DHT22;8305;-33.882;151.134;2023-07-28T13:23:56;16.70;99.90
16392;DHT22;8305;-33.882;151.134;2023-07-28T13:26:31;16.70;99.90
16392;DHT22;8305;-33.882;151.134;2023-07-28T13:29:02;16.70;99.90
16392;DHT22;8305;-33.882;151.134;2023-07-28T13:31:34;16.70;99.90
16392;DHT22;8305;-33.882;151.134;2023-07-28T13:34:05;16.60;99.90
16392;DHT22;8305;-33.882;151.134;2023-07-28T13:36:36;16.60;99.90
16392;DHT22;8305;-33.882;151.134;2023-07-28T13:39:07;16.60;99.90
16392;DHT22;8305;-33.882;151.134;2023-07-28T13:41:39;16.60;99.90
16392;DHT22;8305;-33.882;151.134;2023-07-28T13:44:10;16.60;99.90
16392;DHT22;8305;-33.882;151.134;2023-07-28T13:46:45;16.60;99.90
16392;DHT22;8305;-33.882;151.134;2023-07-28T13:49:18;16.60;99.90
16392;DHT22;8305;-33.882;151.134;2023-07-28T13:51:52;16.60;99.90
16392;DHT22;8305;-33.882;151.134;2023-07-28T13:54:25;16.50;99.90
16392;DHT22;8305;-33.882;151.134;2023-07-28T13:56:58;16.50;99.90
16392;DHT22;8305;-33.882;151.134;2023-07-28T13:59:29;16.60;99.90
16392;DHT22;8305;-33.882;151.134;2023-07-28T14:02:00;16.50;99.90
16392;DHT22;8305;-33.882;151.134;2023-07-28T14:04:31;16.50;99.90
16392;DHT22;8305;-33.882;151.134;2023-07-28T14:07:01;16.50;99.90
16392;DHT22;8305;-33.882;151.134;2023-07-28T14:09:32;16.40;99.90
16392;DHT22;8305;-33.882;151.134;2023-07-28T14:12:06;16.30;99.90
16392;DHT22;8305;-33.882;151.134;2023-07-28T14:14:37;16.20;99.90
16392;DHT22;8305;-33.882;151.134;2023-07-28T14:17:08;16.20;99.90
16392;DHT22;8305;-33.882;151.134;2023-07-28T14:19:39;16.10;99.90
16392;DHT22;8305;-33.882;151.134;2023-07-28T14:22:10;16.00;99.90
16392;DHT22;8305;-33.882;151.134;2023-07-28T14:24:41;16.00;99.90
16392;DHT22;8305;-33.882;151.134;2023-07-28T14:27:14;16.00;99.90
16392;DHT22;8305;-33.882;151.134;2023-07-28T14:29:44;15.90;99.90
16392;DHT22;8305;-33.882;151.134;2023-07-28T14:32:15;15.90;99.90
16392;DHT22;8305;-33.882;151.134;2023-07-28T14:34:47;15.90;99.90
16392;DHT22;8305;-33.882;151.134;2023-07-28T14:37:17;15.80;99.90
16392;DHT22;8305;-33.882;151.134;2023-07-28T14:39:48;15.80;99.90
16392;DHT22;8305;-33.882;151.134;2023-07-28T14:42:21;15.70;99.90
16392;DHT22;8305;-33.882;151.134;2023-07-28T14:44:52;15.70;99.90
16392;DHT22;8305;-33.882;151.134;2023-07-28T14:47:22;15.70;99.90
16392;DHT22;8305;-33.882;151.134;2023-07-28T14:49:53;15.70;99.90
16392;DHT22;8305;-33.882;151.134;2023-07-28T14:52:24;15.70;99.90
16392;DHT22;8305;-33.882;151.134;2023-07-28T14:54:55;15.60;99.90
16392;DHT22;8305;-33.882;151.134;2023-07-28T14:57:27;15.60;99.90
16392;DHT22;8305;-33.882;151.134;2023-07-28T14:59:58;15.60;99.90
16392;DHT22;8305;-33.882;151.134;2023-07-28T15:02:29;15.70;99.90
16392;DHT22;8305;-33.882;151.134;2023-07-28T15:05:00;15.70;99.90
16392;DHT22;8305;-33.882;151.134;2023-07-28T15:07:30;15.70;99.90
16392;DHT22;8305;-33.882;151.134;2023-07-28T15:10:01;15.70;99.90
16392;DHT22;8305;-33.882;151.134;2023-07-28T15:12:34;15.80;99.90
16392;DHT22;8305;-33.882;151.134;2023-07-28T15:15:05;15.70;99.90
16392;DHT22;8305;-33.882;151.134;2023-07-28T15:17:36;15.70;99.90
16392;DHT22;8305;-33.882;151.134;2023-07-28T15:20:07;15.70;99.90
16392;DHT22;8305;-33.882;151.134;2023-07-28T15:22:38;15.70;99.90
16392;DHT22;8305;-33.882;151.134;2023-07-28T15:25:09;15.70;99.90
16392;DHT22;8305;-33.882;151.134;2023-07-28T15:27:42;15.70;99.90
16392;DHT22;8305;-33.882;151.134;2023-07-28T15:30:13;15.60;99.90
16392;DHT22;8305;-33.882;151.134;2023-07-28T15:32:44;15.60;99.90
16392;DHT22;8305;-33.882;151.134;2023-07-28T15:35:15;15.60;99.90
16392;DHT22;8305;-33.882;151.134;2023-07-28T15:37:46;15.50;99.90
16392;DHT22;8305;-33.882;151.134;2023-07-28T15:40:16;15.50;99.90
16392;DHT22;8305;-33.882;151.134;2023-07-28T15:42:49;15.50;99.90
16392;DHT22;8305;-33.882;151.134;2023-07-28T15:45:20;15.50;99.90
16392;DHT22;8305;-33.882;151.134;2023-07-28T15:47:50;15.40;99.90
16392;DHT22;8305;-33.882;151.134;2023-07-28T15:50:21;15.40;99.90
16392;DHT22;8305;-33.882;151.134;2023-07-28T15:52:52;15.40;99.90
16392;DHT22;8305;-33.882;151.134;2023-07-28T15:55:23;15.40;99.90
16392;DHT22;8305;-33.882;151.134;2023-07-28T15:57:58;15.40;99.90
16392;DHT22;8305;-33.882;151.134;2023-07-28T16:00:29;15.40;99.90
16392;DHT22;8305;-33.882;151.134;2023-07-28T16:03:00;15.30;99.90
16392;DHT22;8305;-33.882;151.134;2023-07-28T16:05:31;15.30;99.90
16392;DHT22;8305;-33.882;151.134;2023-07-28T16:08:05;15.30;99.90
16392;DHT22;8305;-33.882;151.134;2023-07-28T16:10:36;15.30;99.90
16392;DHT22;8305;-33.882;151.134;2023-07-28T16:13:09;15.20;99.90
16392;DHT22;8305;-33.882;151.134;2023-07-28T16:15:40;15.20;99.90
16392;DHT22;8305;-33.882;151.134;2023-07-28T16:18:11;15.10;99.90
16392;DHT22;8305;-33.882;151.134;2023-07-28T16:20:42;15.00;99.90
16392;DHT22;8305;-33.882;151.134;2023-07-28T16:23:13;15.00;99.90
16392;DHT22;8305;-33.882;151.134;2023-07-28T16:25:43;15.00;99.90
16392;DHT22;8305;-33.882;151.134;2023-07-28T16:28:17;15.00;99.90
16392;DHT22;8305;-33.882;151.134;2023-07-28T16:30:48;14.90;99.90
16392;DHT22;8305;-33.882;151.134;2023-07-28T16:33:19;14.90;99.90
16392;DHT22;8305;-33.882;151.134;2023-07-28T16:35:50;14.90;99.90
16392;DHT22;8305;-33.882;151.134;2023-07-28T16:38:21;14.90;99.90
16392;DHT22;8305;-33.882;151.134;2023-07-28T16:40:51;15.00;99.90
16392;DHT22;8305;-33.882;151.134;2023-07-28T16:43:24;15.00;99.90
16392;DHT22;8305;-33.882;151.134;2023-07-28T16:45:55;15.00;99.90
16392;DHT22;8305;-33.882;151.134;2023-07-28T16:48:26;15.00;99.90
16392;DHT22;8305;-33.882;151.134;2023-07-28T16:50:57;14.90;99.90
16392;DHT22;8305;-33.882;151.134;2023-07-28T16:53:27;14.90;99.90
16392;DHT22;8305;-33.882;151.134;2023-07-28T16:55:58;14.90;99.90
16392;DHT22;8305;-33.882;151.134;2023-07-28T16:58:31;14.90;99.90
16392;DHT22;8305;-33.882;151.134;2023-07-28T17:01:02;14.80;99.90
16392;DHT22;8305;-33.882;151.134;2023-07-28T17:03:33;14.80;99.90
16392;DHT22;8305;-33.882;151.134;2023-07-28T17:06:04;14.80;99.90
16392;DHT22;8305;-33.882;151.134;2023-07-28T17:08:35;14.80;99.90
16392;DHT22;8305;-33.882;151.134;2023-07-28T17:11:05;14.80;99.90
16392;DHT22;8305;-33.882;151.134;2023-07-28T17:13:42;14.80;99.90
16392;DHT22;8305;-33.882;151.134;2023-07-28T17:16:13;14.80;99.90
16392;DHT22;8305;-33.882;151.134;2023-07-28T17:18:44;14.90;99.90
16392;DHT22;8305;-33.882;151.134;2023-07-28T17:21:15;14.80;99.90
16392;DHT22;8305;-33.882;151.134;2023-07-28T17:23:45;14.80;99.90
16392;DHT22;8305;-33.882;151.134;2023-07-28T17:26:16;14.80;99.90
16392;DHT22;8305;-33.882;151.134;2023-07-28T17:28:49;14.80;99.90
16392;DHT22;8305;-33.882;151.134;2023-07-28T17:31:20;14.80;99.90